Time,TemperatureF,DewpointF,PressureIn,WindDirection,WindDirectionDegrees,WindSpeedMPH,WindSpeedGustMPH,Humidity,HourlyPrecipIn,Conditions,Clouds,dailyrainin,SolarRadiationWatts/m^2,SoftwareType,DateUTC
2013-08-31 00:07:00,74.2,73.0,29.92,SSE,161,0.0,-999.0,97,-99.99,,,0.00,0,weatherlink.com 1.10,2013-08-31 04:07:00,
2013-08-31 00:22:00,74.0,73.0,29.92,SSE,161,0.0,-999.0,98,-99.99,,,0.00,0,weatherlink.com 1.10,2013-08-31 04:22:00,
2013-08-31 00:37:00,73.9,73.0,29.92,SSE,161,0.0,-999.0,98,-99.99,,,0.00,0,weatherlink.com 1.10,2013-08-31 04:37:00,
2013-08-31 00:52:00,73.7,73.0,29.92,SSE,161,0.0,-999.0,99,-99.99,,,0.00,0,weatherlink.com 1.10,2013-08-31 04:52:00,
2013-08-31 01:07:00,73.9,74.0,29.92,SSE,161,0.0,-999.0,100,-99.99,,,0.00,0,weatherlink.com 1.10,2013-08-31 05:07:00,
2013-08-31 01:22:00,73.9,74.0,29.92,South,173,0.0,-999.0,100,-99.99,,,0.00,0,weatherlink.com 1.10,2013-08-31 05:22:00,
2013-08-31 01:37:00,73.5,73.0,29.91,South,182,1.0,-999.0,98,-99.99,,,0.00,0,weatherlink.com 1.10,2013-08-31 05:37:00,
2013-08-31 01:52:00,73.3,73.0,29.91,South,182,0.0,-999.0,98,-99.99,,,0.00,0,weatherlink.com 1.10,2013-08-31 05:52:00,
2013-08-31 02:07:00,73.3,72.0,29.90,South,185,0.0,-999.0,97,-99.99,,,0.00,0,weatherlink.com 1.10,2013-08-31 06:07:00,
2013-08-31 02:22:00,73.3,72.0,29.89,South,185,0.0,-999.0,97,-99.99,,,0.00,0,weatherlink.com 1.10,2013-08-31 06:22:00,
2013-08-31 02:37:00,73.2,72.0,29.89,South,185,0.0,-999.0,97,-99.99,,,0.00,0,weatherlink.com 1.10,2013-08-31 06:37:00,
2013-08-31 02:52:00,73.0,72.0,29.89,South,185,0.0,-999.0,98,-99.99,,,0.00,0,weatherlink.com 1.10,2013-08-31 06:52:00,
2013-08-31 03:07:00,72.8,72.0,29.89,South,185,0.0,-999.0,98,-99.99,,,0.00,0,weatherlink.com 1.10,2013-08-31 07:07:00,
2013-08-31 03:22:00,72.8,73.0,29.88,South,185,0.0,-999.0,99,-99.99,,,0.00,0,weatherlink.com 1.10,2013-08-31 07:22:00,
2013-08-31 03:37:00,72.7,72.0,29.88,South,185,0.0,-999.0,99,-99.99,,,0.00,0,weatherlink.com 1.10,2013-08-31 07:37:00,
2013-08-31 03:52:00,72.5,72.0,29.88,South,185,0.0,-999.0,99,-99.99,,,0.00,0,weatherlink.com 1.10,2013-08-31 07:52:00,
2013-08-31 04:07:00,72.5,72.0,29.89,South,185,0.0,-999.0,99,-99.99,,,0.00,0,weatherlink.com 1.10,2013-08-31 08:07:00,
2013-08-31 04:22:00,72.5,72.0,29.89,South,185,0.0,-999.0,98,-99.99,,,0.00,0,weatherlink.com 1.10,2013-08-31 08:22:00,
2013-08-31 04:37:00,72.3,72.0,29.88,South,185,0.0,-999.0,98,-99.99,,,0.00,0,weatherlink.com 1.10,2013-08-31 08:37:00,
2013-08-31 04:52:00,72.3,72.0,29.89,South,185,0.0,-999.0,98,-99.99,,,0.00,0,weatherlink.com 1.10,2013-08-31 08:52:00,
2013-08-31 05:07:00,72.1,72.0,29.89,South,185,0.0,-999.0,98,-99.99,,,0.00,0,weatherlink.com 1.10,2013-08-31 09:07:00,
2013-08-31 05:22:00,72.1,72.0,29.88,South,185,0.0,-999.0,98,-99.99,,,0.00,0,weatherlink.com 1.10,2013-08-31 09:22:00,
2013-08-31 05:37:00,72.1,72.0,29.88,South,185,0.0,-999.0,98,-99.99,,,0.00,0,weatherlink.com 1.10,2013-08-31 09:37:00,
2013-08-31 05:52:00,72.1,72.0,29.88,South,178,0.0,-999.0,98,-99.99,,,0.00,0,weatherlink.com 1.10,2013-08-31 09:52:00,
2013-08-31 06:10:00,72.5,72.0,29.89,South,178,0.0,-999.0,98,-99.99,,,0.00,0,weatherlink.com 1.10,2013-08-31 10:10:00,
2013-08-31 06:23:00,72.7,72.0,29.89,South,178,0.0,-999.0,98,-99.99,,,0.00,0,weatherlink.com 1.10,2013-08-31 10:23:00,
2013-08-31 06:39:00,72.8,72.0,29.90,South,178,0.0,-999.0,98,-99.99,,,0.00,0,weatherlink.com 1.10,2013-08-31 10:39:00,
2013-08-31 06:52:00,72.8,72.0,29.90,South,178,0.0,-999.0,98,-99.99,,,0.00,0,weatherlink.com 1.10,2013-08-31 10:52:00,
2013-08-31 07:10:00,72.7,72.0,29.91,South,178,0.0,-999.0,99,-99.99,,,0.00,5,weatherlink.com 1.10,2013-08-31 11:10:00,
2013-08-31 07:25:00,72.7,72.0,29.92,South,178,0.0,-999.0,99,-99.99,,,0.00,16,weatherlink.com 1.10,2013-08-31 11:25:00,
2013-08-31 07:40:00,73.0,73.0,29.92,South,178,0.0,-999.0,100,-99.99,,,0.00,46,weatherlink.com 1.10,2013-08-31 11:40:00,
2013-08-31 07:52:00,74.2,74.0,29.93,South,178,0.0,-999.0,100,-99.99,,,0.00,76,weatherlink.com 1.10,2013-08-31 11:52:00,
2013-08-31 08:10:00,76.1,76.0,29.93,South,178,0.0,-999.0,98,-99.99,,,0.00,127,weatherlink.com 1.10,2013-08-31 12:10:00,
2013-08-31 08:22:00,76.3,75.0,29.93,South,175,0.0,-999.0,95,-99.99,,,0.00,160,weatherlink.com 1.10,2013-08-31 12:22:00,
2013-08-31 08:40:00,76.7,75.0,29.93,South,176,0.0,-999.0,93,-99.99,,,0.00,211,weatherlink.com 1.10,2013-08-31 12:40:00,
2013-08-31 08:52:00,77.4,75.0,29.94,SSE,164,6.0,-999.0,92,-99.99,,,0.00,262,weatherlink.com 1.10,2013-08-31 12:52:00,
2013-08-31 09:10:00,78.8,75.0,29.94,South,190,0.0,-999.0,89,-99.99,,,0.00,318,weatherlink.com 1.10,2013-08-31 13:10:00,
2013-08-31 09:25:00,80.3,77.0,29.95,South,169,5.0,-999.0,88,-99.99,,,0.00,371,weatherlink.com 1.10,2013-08-31 13:25:00,
2013-08-31 09:40:00,81.4,77.0,29.95,WSW,249,0.0,-999.0,85,-99.99,,,0.00,429,weatherlink.com 1.10,2013-08-31 13:40:00,
2013-08-31 09:55:00,82.0,76.0,29.95,WSW,245,0.0,-999.0,83,-99.99,,,0.00,478,weatherlink.com 1.10,2013-08-31 13:55:00,
2013-08-31 10:10:00,82.6,77.0,29.95,WSW,245,1.0,-999.0,82,-99.99,,,0.00,529,weatherlink.com 1.10,2013-08-31 14:10:00,
2013-08-31 10:25:00,83.2,76.0,29.95,SSW,207,3.0,-999.0,78,-99.99,,,0.00,589,weatherlink.com 1.10,2013-08-31 14:25:00,
2013-08-31 10:40:00,83.8,77.0,29.95,SW,225,0.0,-999.0,79,-99.99,,,0.00,626,weatherlink.com 1.10,2013-08-31 14:40:00,
2013-08-31 10:55:00,84.5,75.0,29.95,SSE,167,2.0,-999.0,72,-99.99,,,0.00,670,weatherlink.com 1.10,2013-08-31 14:55:00,
2013-08-31 11:08:00,85.1,74.0,29.96,WSW,248,0.0,-999.0,70,-99.99,,,0.00,705,weatherlink.com 1.10,2013-08-31 15:08:00,
2013-08-31 11:25:00,85.1,74.0,29.95,WSW,248,0.0,-999.0,70,-99.99,,,0.00,777,weatherlink.com 1.10,2013-08-31 15:25:00,
2013-08-31 11:40:00,85.3,74.0,29.96,WSW,248,0.0,-999.0,68,-99.99,,,0.00,786,weatherlink.com 1.10,2013-08-31 15:40:00,
2013-08-31 11:52:00,85.5,75.0,29.96,South,188,6.0,-999.0,70,-99.99,,,0.00,856,weatherlink.com 1.10,2013-08-31 15:52:00,
2013-08-31 12:07:00,87.2,76.0,29.95,SW,223,0.0,-999.0,69,-99.99,,,0.00,905,weatherlink.com 1.10,2013-08-31 16:07:00,
2013-08-31 12:22:00,87.0,76.0,29.95,WSW,254,2.0,-999.0,69,-99.99,,,0.00,895,weatherlink.com 1.10,2013-08-31 16:22:00,
2013-08-31 12:37:00,88.2,75.0,29.95,WSW,246,0.0,-999.0,64,-99.99,,,0.00,1011,weatherlink.com 1.10,2013-08-31 16:37:00,
2013-08-31 12:52:00,88.2,75.0,29.94,NW,318,5.0,-999.0,65,-99.99,,,0.00,926,weatherlink.com 1.10,2013-08-31 16:52:00,
2013-08-31 13:07:00,88.0,74.0,29.93,WSW,254,0.0,-999.0,64,-99.99,,,0.00,963,weatherlink.com 1.10,2013-08-31 17:07:00,
2013-08-31 13:22:00,88.8,75.0,29.93,West,265,2.0,-999.0,64,-99.99,,,0.00,974,weatherlink.com 1.10,2013-08-31 17:22:00,
2013-08-31 13:37:00,88.8,76.0,29.93,SW,227,0.0,-999.0,65,-99.99,,,0.00,1039,weatherlink.com 1.10,2013-08-31 17:37:00,
2013-08-31 13:52:00,88.2,75.0,29.93,WSW,242,0.0,-999.0,65,-99.99,,,0.00,1025,weatherlink.com 1.10,2013-08-31 17:52:00,
2013-08-31 14:07:00,89.9,75.0,29.93,WSW,244,0.0,-999.0,62,-99.99,,,0.00,970,weatherlink.com 1.10,2013-08-31 18:07:00,
2013-08-31 14:22:00,90.1,73.0,29.92,WSW,255,4.0,-999.0,57,-99.99,,,0.00,1051,weatherlink.com 1.10,2013-08-31 18:22:00,
2013-08-31 14:37:00,91.2,74.0,29.91,SSW,200,1.0,-999.0,58,-99.99,,,0.00,195,weatherlink.com 1.10,2013-08-31 18:37:00,
2013-08-31 14:52:00,89.9,75.0,29.90,West,271,3.0,-999.0,62,-99.99,,,0.00,965,weatherlink.com 1.10,2013-08-31 18:52:00,
2013-08-31 15:07:00,90.7,74.0,29.89,WSW,246,1.0,-999.0,59,-99.99,,,0.00,965,weatherlink.com 1.10,2013-08-31 19:07:00,
2013-08-31 15:22:00,90.5,74.0,29.90,South,190,3.0,-999.0,58,-99.99,,,0.00,348,weatherlink.com 1.10,2013-08-31 19:22:00,
2013-08-31 15:37:00,87.4,74.0,29.89,SW,236,0.0,-999.0,65,-99.99,,,0.00,977,weatherlink.com 1.10,2013-08-31 19:37:00,
2013-08-31 15:52:00,89.3,75.0,29.89,West,275,5.0,-999.0,62,-99.99,,,0.00,805,weatherlink.com 1.10,2013-08-31 19:52:00,
2013-08-31 16:07:00,87.0,74.0,29.88,West,268,9.0,-999.0,66,-99.99,,,0.00,561,weatherlink.com 1.10,2013-08-31 20:07:00,
2013-08-31 16:22:00,86.5,74.0,29.88,WNW,290,6.0,-999.0,66,-99.99,,,0.00,796,weatherlink.com 1.10,2013-08-31 20:22:00,
2013-08-31 16:39:00,87.6,74.0,29.87,WNW,301,6.0,-999.0,64,-99.99,,,0.00,649,weatherlink.com 1.10,2013-08-31 20:39:00,
2013-08-31 16:52:00,88.0,72.0,29.87,WSW,248,4.0,-999.0,60,-99.99,,,0.00,610,weatherlink.com 1.10,2013-08-31 20:52:00,
2013-08-31 17:07:00,88.0,72.0,29.88,West,265,6.0,-999.0,59,-99.99,,,0.00,568,weatherlink.com 1.10,2013-08-31 21:07:00,
2013-08-31 17:22:00,88.6,72.0,29.87,SW,220,0.0,-999.0,59,-99.99,,,0.00,519,weatherlink.com 1.10,2013-08-31 21:22:00,
2013-08-31 17:37:00,88.4,71.0,29.88,WNW,296,5.0,-999.0,57,-99.99,,,0.00,461,weatherlink.com 1.10,2013-08-31 21:37:00,
2013-08-31 17:52:00,88.2,71.0,29.88,West,273,5.0,-999.0,57,-99.99,,,0.00,408,weatherlink.com 1.10,2013-08-31 21:52:00,
2013-08-31 18:07:00,87.8,72.0,29.88,WNW,286,0.0,-999.0,60,-99.99,,,0.00,346,weatherlink.com 1.10,2013-08-31 22:07:00,
2013-08-31 18:22:00,87.8,73.0,29.88,WSW,255,5.0,-999.0,61,-99.99,,,0.00,288,weatherlink.com 1.10,2013-08-31 22:22:00,
2013-08-31 18:37:00,87.0,72.0,29.88,WSW,257,0.0,-999.0,61,-99.99,,,0.00,236,weatherlink.com 1.10,2013-08-31 22:37:00,
2013-08-31 18:52:00,86.1,72.0,29.88,West,259,0.0,-999.0,62,-99.99,,,0.00,58,weatherlink.com 1.10,2013-08-31 22:52:00,
2013-08-31 19:07:00,85.3,72.0,29.89,West,259,0.0,-999.0,65,-99.99,,,0.00,54,weatherlink.com 1.10,2013-08-31 23:07:00,
2013-08-31 19:22:00,84.9,73.0,29.89,West,259,0.0,-999.0,67,-99.99,,,0.00,70,weatherlink.com 1.10,2013-08-31 23:22:00,
2013-08-31 19:37:00,84.7,73.0,29.89,West,259,0.0,-999.0,69,-99.99,,,0.00,26,weatherlink.com 1.10,2013-08-31 23:37:00,
2013-08-31 19:53:00,82.0,71.0,29.90,SSE,168,7.0,-999.0,69,-99.99,,,0.00,0,weatherlink.com 1.10,2013-08-31 23:53:00,
2013-08-31 20:07:00,78.5,71.0,29.90,SSE,167,8.0,-999.0,78,-99.99,,,0.00,0,weatherlink.com 1.10,2013-09-01 00:07:00,
2013-08-31 20:24:00,77.6,72.0,29.90,South,177,0.0,-999.0,82,-99.99,,,0.00,0,weatherlink.com 1.10,2013-09-01 00:24:00,
2013-08-31 20:37:00,76.7,72.0,29.90,SSE,164,0.0,-999.0,86,-99.99,,,0.00,0,weatherlink.com 1.10,2013-09-01 00:37:00,
2013-08-31 20:53:00,76.5,72.0,29.91,SSE,153,0.0,-999.0,86,-99.99,,,0.00,0,weatherlink.com 1.10,2013-09-01 00:53:00,
2013-08-31 21:07:00,76.1,72.0,29.92,South,178,1.0,-999.0,87,-99.99,,,0.00,0,weatherlink.com 1.10,2013-09-01 01:07:00,
2013-08-31 21:24:00,75.6,73.0,29.93,SSE,163,0.0,-999.0,91,-99.99,,,0.00,0,weatherlink.com 1.10,2013-09-01 01:24:00,
2013-08-31 21:39:00,75.8,73.0,29.95,South,183,0.0,-999.0,91,-99.99,,,0.00,0,weatherlink.com 1.10,2013-09-01 01:39:00,
2013-08-31 21:52:00,76.0,73.0,29.95,South,183,3.0,-999.0,91,-99.99,,,0.00,0,weatherlink.com 1.10,2013-09-01 01:52:00,
2013-08-31 22:07:00,76.1,73.0,29.96,South,184,0.0,-999.0,90,-99.99,,,0.00,0,weatherlink.com 1.10,2013-09-01 02:07:00,
2013-08-31 22:22:00,76.3,73.0,29.95,South,184,0.0,-999.0,90,-99.99,,,0.00,0,weatherlink.com 1.10,2013-09-01 02:22:00,
2013-08-31 22:37:00,76.1,73.0,29.95,South,183,4.0,-999.0,89,-99.99,,,0.00,0,weatherlink.com 1.10,2013-09-01 02:37:00,
2013-08-31 22:54:00,75.8,73.0,29.95,South,184,0.0,-999.0,90,-99.99,,,0.00,0,weatherlink.com 1.10,2013-09-01 02:54:00,
2013-08-31 23:07:00,75.4,72.0,29.95,South,186,0.0,-999.0,90,-99.99,,,0.00,0,weatherlink.com 1.10,2013-09-01 03:07:00,
2013-08-31 23:22:00,75.1,72.0,29.94,South,186,0.0,-999.0,91,-99.99,,,0.00,0,weatherlink.com 1.10,2013-09-01 03:22:00,
2013-08-31 23:37:00,74.6,72.0,29.94,South,186,0.0,-999.0,92,-99.99,,,0.00,0,weatherlink.com 1.10,2013-09-01 03:37:00,
2013-08-31 23:52:00,74.4,72.0,29.94,South,186,0.0,-999.0,93,-99.99,,,0.00,0,weatherlink.com 1.10,2013-09-01 03:52:00,